createdAt,value
2019-05-29T00:00:21.908Z,2.53
2019-05-29T00:02:47.759Z,5.93
2019-05-29T00:05:14.276Z,2.70
2019-05-29T00:07:40.258Z,5.53
2019-05-29T00:10:08.955Z,3.83
2019-05-29T00:12:35.236Z,5.23
2019-05-29T00:15:01.111Z,5.73
2019-05-29T00:17:26.981Z,6.63
2019-05-29T00:19:52.843Z,4.47
2019-05-29T00:22:18.686Z,6.60
2019-05-29T00:24:44.559Z,3.63
2019-05-29T00:27:13.791Z,6.07
2019-05-29T00:29:38.213Z,3.97
2019-05-29T00:32:04.071Z,5.10
2019-05-29T00:34:29.931Z,4.43
2019-05-29T00:36:55.778Z,3.87
2019-05-29T00:39:21.644Z,4.73
2019-05-29T00:41:47.610Z,3.80
2019-05-29T00:44:13.466Z,2.57
2019-05-29T00:46:39.308Z,5.27
2019-05-29T00:49:05.180Z,7.47
2019-05-29T00:51:31.028Z,6.33
2019-05-29T00:53:56.873Z,2.80
2019-05-29T00:56:22.757Z,3.60
2019-05-29T00:58:48.597Z,5.37
2019-05-29T01:01:15.481Z,3.43
2019-05-29T01:03:41.436Z,4.40
2019-05-29T01:06:07.286Z,3.07
2019-05-29T01:08:33.135Z,6.43
2019-05-29T01:10:59.022Z,3.70
2019-05-29T01:13:24.877Z,4.67
2019-05-29T01:15:50.736Z,5.30
2019-05-29T01:18:17.623Z,4.47
2019-05-29T01:20:43.752Z,4.53
2019-05-29T01:23:09.620Z,2.60
2019-05-29T01:25:35.490Z,5.63
2019-05-29T01:28:02.358Z,4.80
2019-05-29T01:30:28.208Z,7.80
2019-05-29T01:32:54.128Z,2.60
2019-05-29T01:35:20.184Z,4.70
2019-05-29T01:37:46.168Z,3.63
2019-05-29T01:40:20.016Z,3.40
2019-05-29T01:42:40.683Z,4.03
2019-05-29T01:45:08.479Z,4.10
2019-05-29T01:47:34.619Z,3.07
2019-05-29T01:50:00.476Z,3.67
2019-05-29T01:52:26.329Z,4.57
2019-05-29T01:54:52.199Z,3.13
2019-05-29T01:57:18.070Z,3.40
2019-05-29T01:59:44.024Z,5.13
2019-05-29T02:02:09.881Z,4.67
2019-05-29T02:04:35.728Z,4.23
2019-05-29T02:07:01.593Z,4.87
2019-05-29T02:09:28.354Z,3.37
2019-05-29T02:11:54.335Z,3.90
2019-05-29T02:14:20.529Z,3.17
2019-05-29T02:16:46.454Z,5.13
2019-05-29T02:19:12.315Z,6.63
2019-05-29T02:21:38.157Z,6.93
2019-05-29T02:24:04.022Z,4.07
2019-05-29T02:26:29.881Z,6.37
2019-05-29T02:28:55.751Z,9.50
2019-05-29T02:31:22.382Z,5.83
2019-05-29T02:33:49.369Z,4.03
2019-05-29T02:36:15.247Z,6.87
2019-05-29T02:38:41.131Z,3.87
2019-05-29T02:41:06.998Z,4.97
2019-05-29T02:43:32.860Z,3.17
2019-05-29T02:45:58.716Z,3.40
2019-05-29T02:48:25.051Z,7.70
2019-05-29T02:50:51.542Z,3.40
2019-05-29T02:53:17.397Z,5.00
2019-05-29T02:55:43.242Z,3.70
2019-05-29T02:58:09.108Z,4.37
2019-05-29T03:00:54.744Z,3.97
2019-05-29T03:03:23.529Z,3.55
2019-05-29T03:05:51.403Z,5.33
2019-05-29T03:08:17.367Z,4.23
2019-05-29T03:10:43.225Z,3.67
2019-05-29T03:13:09.067Z,2.80
2019-05-29T03:15:34.925Z,5.07
2019-05-29T03:18:00.788Z,5.47
2019-05-29T03:20:27.989Z,7.80
2019-05-29T03:22:54.106Z,5.33
2019-05-29T03:25:19.990Z,6.47
2019-05-29T03:27:45.840Z,4.23
2019-05-29T03:30:12.783Z,4.60
2019-05-29T03:32:46.736Z,4.07
2019-05-29T03:35:06.612Z,3.93
2019-05-29T03:37:32.949Z,4.83
2019-05-29T03:40:00.159Z,3.63
2019-05-29T03:42:26.428Z,3.87
2019-05-29T03:44:52.376Z,7.77
2019-05-29T03:47:18.233Z,4.47
2019-05-29T03:49:44.084Z,5.67
2019-05-29T03:52:09.966Z,4.40
2019-05-29T03:54:35.939Z,6.50
2019-05-29T03:57:01.792Z,7.40
2019-05-29T03:59:28.599Z,5.27
2019-05-29T04:01:54.539Z,6.33
2019-05-29T04:04:21.533Z,3.77
2019-05-29T04:06:47.686Z,6.60
2019-05-29T04:09:13.648Z,7.87
2019-05-29T04:11:40.398Z,6.17
2019-05-29T04:14:06.259Z,5.07
2019-05-29T04:16:54.090Z,5.40
2019-05-29T04:19:01.629Z,5.37
2019-05-29T04:21:29.726Z,8.23
2019-05-29T04:23:56.130Z,5.23
2019-05-29T04:26:23.487Z,6.47
2019-05-29T04:28:49.754Z,8.43
2019-05-29T04:31:15.917Z,6.73
2019-05-29T04:33:41.772Z,5.13
2019-05-29T04:36:07.621Z,5.20
2019-05-29T04:38:35.521Z,9.13
2019-05-29T04:41:01.272Z,6.10
2019-05-29T04:43:28.607Z,4.90
2019-05-29T04:45:54.696Z,5.00
2019-05-29T04:48:20.549Z,7.37
2019-05-29T04:50:46.400Z,4.20
2019-05-29T04:53:12.255Z,6.13
2019-05-29T04:55:39.012Z,7.03
2019-05-29T04:58:04.968Z,7.50
2019-05-29T05:00:31.002Z,5.87
2019-05-29T05:02:56.983Z,7.27
2019-05-29T05:05:22.830Z,5.17
2019-05-29T05:07:48.679Z,8.10
2019-05-29T05:10:18.341Z,6.20
2019-05-29T05:12:44.218Z,7.37
2019-05-29T05:15:10.762Z,5.87
2019-05-29T05:17:37.925Z,10.50
2019-05-29T05:20:04.774Z,7.67
2019-05-29T05:22:31.982Z,4.47
2019-05-29T05:24:57.982Z,5.23
2019-05-29T05:27:23.846Z,9.30
2019-05-29T05:29:49.742Z,6.10
2019-05-29T05:32:15.599Z,6.40
2019-05-29T05:34:42.295Z,7.17
2019-05-29T05:37:08.148Z,5.20
2019-05-29T05:39:35.171Z,5.43
2019-05-29T05:42:01.215Z,8.00
2019-05-29T05:44:27.058Z,6.67
2019-05-29T05:46:52.918Z,6.63
2019-05-29T05:49:18.769Z,8.67
2019-05-29T05:51:44.851Z,7.23
2019-05-29T05:54:10.793Z,7.57
2019-05-29T05:56:37.713Z,5.17
2019-05-29T05:59:03.713Z,6.50
2019-05-29T06:01:29.569Z,7.37
2019-05-29T06:03:55.497Z,4.20
2019-05-29T06:06:21.361Z,3.97
2019-05-29T06:08:47.224Z,6.27
2019-05-29T06:11:13.071Z,3.83
2019-05-29T06:13:38.930Z,3.70
2019-05-29T06:16:04.803Z,6.43
2019-05-29T06:18:30.650Z,7.47
2019-05-29T06:20:56.515Z,4.43
2019-05-29T06:23:22.386Z,7.80
2019-05-29T06:25:48.254Z,5.93
2019-05-29T06:28:14.216Z,6.80
2019-05-29T06:30:41.233Z,5.93
2019-05-29T06:33:08.079Z,5.63
2019-05-29T06:35:35.855Z,4.03
2019-05-29T06:38:01.953Z,5.00
2019-05-29T06:40:34.087Z,8.13
2019-05-29T06:43:00.036Z,7.43
2019-05-29T06:45:31.553Z,10.00
2019-05-29T06:47:57.415Z,2.67
2019-05-29T06:50:23.274Z,3.63
2019-05-29T06:52:49.171Z,4.53
2019-05-29T06:55:15.050Z,3.37
2019-05-29T06:57:42.653Z,2.87
2019-05-29T07:00:08.938Z,5.17
2019-05-29T07:02:34.850Z,3.53
2019-05-29T07:05:00.689Z,3.10
2019-05-29T07:07:26.553Z,3.57
2019-05-29T07:09:52.439Z,4.60
2019-05-29T07:12:18.309Z,4.67
2019-05-29T07:14:44.555Z,5.17
2019-05-29T07:17:10.458Z,5.47
2019-05-29T07:19:48.994Z,5.40
2019-05-29T07:22:04.082Z,5.10
2019-05-29T07:24:29.942Z,5.40
2019-05-29T07:26:55.809Z,4.53
2019-05-29T07:29:21.679Z,4.40
2019-05-29T07:31:47.696Z,3.10
2019-05-29T07:34:13.558Z,14.20
2019-05-29T07:36:39.895Z,12.20
2019-05-29T07:39:06.525Z,3.83
2019-05-29T07:41:32.382Z,9.70
2019-05-29T07:43:58.259Z,4.27
2019-05-29T07:46:24.116Z,7.47
2019-05-29T07:48:50.590Z,5.03
2019-05-29T07:51:16.695Z,2.37
2019-05-29T07:53:42.555Z,5.03
2019-05-29T07:56:21.570Z,6.77
2019-05-29T07:58:36.297Z,6.50
2019-05-29T08:01:12.661Z,6.10
2019-05-29T08:03:30.135Z,4.93
2019-05-29T08:05:55.986Z,3.70
2019-05-29T08:08:21.835Z,6.97
2019-05-29T08:10:47.707Z,5.50
2019-05-29T08:13:13.564Z,4.47
2019-05-29T08:15:55.282Z,4.57
2019-05-29T08:18:07.248Z,3.03
2019-05-29T08:20:33.117Z,2.90
2019-05-29T08:22:58.976Z,4.03
2019-05-29T08:25:24.833Z,7.53
2019-05-29T08:27:50.871Z,1.93
2019-05-29T08:30:17.047Z,6.67
2019-05-29T08:32:43.572Z,6.33
2019-05-29T08:35:10.428Z,3.42
2019-05-29T08:37:36.308Z,7.78
2019-05-29T08:40:07.212Z,4.12
2019-05-29T08:42:33.110Z,4.37
2019-05-29T08:44:59.080Z,5.80
2019-05-29T08:47:24.934Z,3.85
2019-05-29T08:49:54.027Z,4.33
2019-05-29T08:52:18.609Z,7.35
2019-05-29T08:54:44.486Z,3.55
2019-05-29T08:57:10.355Z,6.10
2019-05-29T08:59:36.215Z,3.25
2019-05-29T09:02:02.099Z,5.53
2019-05-29T09:04:27.983Z,6.97
2019-05-29T09:06:53.858Z,5.37
2019-05-29T09:09:19.711Z,5.55
2019-05-29T09:11:45.567Z,5.47
2019-05-29T09:14:11.421Z,4.12
2019-05-29T09:16:37.288Z,6.22
2019-05-29T09:19:03.269Z,4.40
2019-05-29T09:21:29.171Z,4.55
2019-05-29T09:23:58.537Z,12.47
2019-05-29T09:26:25.525Z,4.05
2019-05-29T09:28:50.601Z,5.47
2019-05-29T09:31:18.189Z,5.12
2019-05-29T09:33:44.224Z,5.92
2019-05-29T09:36:10.075Z,3.90
2019-05-29T09:38:36.776Z,5.00
2019-05-29T09:41:02.660Z,3.60
2019-05-29T09:43:30.787Z,5.10
2019-05-29T09:45:56.274Z,4.15
2019-05-29T09:48:26.539Z,3.85
2019-05-29T09:50:50.906Z,5.67
2019-05-29T09:53:16.796Z,3.95
2019-05-29T09:55:42.758Z,4.40
2019-05-29T09:58:08.675Z,4.85
2019-05-29T10:00:34.537Z,6.05
2019-05-29T10:03:01.412Z,3.72
2019-05-29T10:05:27.449Z,8.65
2019-05-29T10:07:54.525Z,4.72
2019-05-29T10:10:22.669Z,12.47
2019-05-29T10:12:48.523Z,3.70
2019-05-29T10:15:15.032Z,5.20
2019-05-29T10:17:41.085Z,3.35
2019-05-29T10:20:09.039Z,6.20
2019-05-29T10:22:34.899Z,8.98
2019-05-29T10:25:01.962Z,7.40
2019-05-29T10:27:27.931Z,5.53
2019-05-29T10:29:54.321Z,8.35
2019-05-29T10:32:20.320Z,7.67
2019-05-29T10:34:46.333Z,6.60
2019-05-29T10:37:12.258Z,4.80
2019-05-29T10:39:38.144Z,8.17
2019-05-29T10:42:04.109Z,4.97
2019-05-29T10:44:29.970Z,6.12
2019-05-29T10:46:56.516Z,5.87
2019-05-29T10:49:22.743Z,5.47
2019-05-29T10:52:05.783Z,7.00
2019-05-29T10:54:16.587Z,5.62
2019-05-29T10:56:42.577Z,6.42
2019-05-29T10:59:08.434Z,6.17
2019-05-29T11:01:34.703Z,9.38
2019-05-29T11:04:00.550Z,5.03
2019-05-29T11:06:26.406Z,6.03
2019-05-29T11:08:52.259Z,6.95
2019-05-29T11:11:18.116Z,5.90
2019-05-29T11:13:43.966Z,8.78
2019-05-29T11:16:09.824Z,5.08
2019-05-29T11:18:35.678Z,5.37
2019-05-29T11:21:01.607Z,4.03
2019-05-29T11:23:27.630Z,7.70
2019-05-29T11:25:54.036Z,6.75
2019-05-29T11:28:19.906Z,6.35
2019-05-29T11:30:45.767Z,5.05
2019-05-29T11:33:11.687Z,9.93
2019-05-29T11:35:37.618Z,5.00
2019-05-29T11:38:03.482Z,7.33
2019-05-29T11:40:29.702Z,6.30
2019-05-29T11:42:56.915Z,2.90
2019-05-29T11:48:19.856Z,4.95
2019-05-29T11:50:45.710Z,3.90
2019-05-29T11:53:11.564Z,6.70
2019-05-29T11:55:38.289Z,4.95
2019-05-29T11:58:04.369Z,2.77
2019-05-29T12:00:30.515Z,4.62
2019-05-29T12:02:57.650Z,4.53
2019-05-29T12:05:23.938Z,4.22
2019-05-29T12:07:51.412Z,8.23
2019-05-29T12:10:18.347Z,4.45
2019-05-29T12:12:44.283Z,5.00
2019-05-29T12:15:14.982Z,3.65
2019-05-29T12:17:39.051Z,4.70
2019-05-29T12:20:26.624Z,5.80
2019-05-29T12:22:33.821Z,6.42
2019-05-29T12:25:00.680Z,5.35
2019-05-29T12:27:26.654Z,4.55
2019-05-29T12:29:52.652Z,3.87
2019-05-29T12:32:18.616Z,3.00
2019-05-29T12:34:53.097Z,4.22
2019-05-29T12:37:12.217Z,4.60
2019-05-29T12:39:38.079Z,3.65
2019-05-29T12:42:03.941Z,4.30
2019-05-29T12:44:29.805Z,3.85
2019-05-29T12:46:55.655Z,4.95
2019-05-29T12:49:21.532Z,3.52
2019-05-29T12:51:47.388Z,3.08
2019-05-29T12:54:13.238Z,3.70
2019-05-29T12:56:39.118Z,5.03
2019-05-29T12:59:05.157Z,3.58
2019-05-29T13:01:31.021Z,4.28
2019-05-29T13:03:58.524Z,3.35
2019-05-29T13:06:24.601Z,4.28
2019-05-29T13:08:50.451Z,4.00
2019-05-29T13:11:16.366Z,4.70
2019-05-29T13:13:42.234Z,3.37
2019-05-29T13:16:08.085Z,7.05
2019-05-29T13:18:33.958Z,5.20
2019-05-29T13:21:00.886Z,7.65
2019-05-29T13:23:26.878Z,4.92
2019-05-29T13:25:52.751Z,3.98
2019-05-29T13:28:18.618Z,2.98
2019-05-29T13:30:44.478Z,4.62
2019-05-29T13:33:10.550Z,6.03
2019-05-29T13:35:36.490Z,4.47
2019-05-29T13:38:03.272Z,3.70
2019-05-29T13:40:29.307Z,8.58
2019-05-29T13:42:56.229Z,4.92
2019-05-29T13:45:23.816Z,4.58
2019-05-29T13:47:49.894Z,3.75
2019-05-29T13:50:16.750Z,3.55
2019-05-29T13:52:42.642Z,3.12
2019-05-29T13:55:08.960Z,3.95
2019-05-29T13:57:34.810Z,5.05
2019-05-29T14:00:06.147Z,5.20
2019-05-29T14:02:28.432Z,5.15
2019-05-29T14:04:54.309Z,4.10
2019-05-29T14:07:20.291Z,5.25
2019-05-29T14:09:46.170Z,5.78
2019-05-29T14:12:12.012Z,3.67
2019-05-29T14:14:37.867Z,6.25
2019-05-29T14:17:04.583Z,7.22
2019-05-29T14:19:30.594Z,3.72
2019-05-29T14:21:56.551Z,7.62
2019-05-29T14:24:29.256Z,6.17
2019-05-29T14:26:50.158Z,4.67
2019-05-29T14:29:16.027Z,7.58
2019-05-29T14:31:41.877Z,6.58
2019-05-29T14:34:07.741Z,5.90
2019-05-29T14:36:33.606Z,5.12
2019-05-29T14:38:59.470Z,3.90
2019-05-29T14:41:25.372Z,4.75
2019-05-29T14:43:51.355Z,4.33
2019-05-29T14:46:17.271Z,6.58
2019-05-29T14:48:43.125Z,5.65
2019-05-29T14:51:10.503Z,5.10
2019-05-29T14:53:36.459Z,6.00
2019-05-29T14:56:02.557Z,5.60
2019-05-29T14:58:28.500Z,6.25
2019-05-29T15:00:54.355Z,4.67
2019-05-29T15:03:20.215Z,7.35
2019-05-29T15:05:46.076Z,6.35
2019-05-29T15:08:12.086Z,8.55
2019-05-29T15:10:38.283Z,7.00
2019-05-29T15:13:04.418Z,5.22
2019-05-29T15:15:30.299Z,7.08
2019-05-29T15:17:56.151Z,6.08
2019-05-29T15:20:21.998Z,6.03
2019-05-29T15:22:48.023Z,7.35
2019-05-29T15:25:23.515Z,12.20
2019-05-29T15:27:42.370Z,7.45
2019-05-29T15:30:10.953Z,7.45
2019-05-29T15:32:36.796Z,6.17
2019-05-29T15:35:06.534Z,5.75
2019-05-29T15:37:32.575Z,6.60
2019-05-29T15:39:58.452Z,6.10
2019-05-29T15:42:24.360Z,6.45
2019-05-29T15:44:50.242Z,6.65
2019-05-29T15:47:17.188Z,7.10
2019-05-29T15:49:43.199Z,5.70
2019-05-29T15:52:09.094Z,6.60
2019-05-29T15:54:34.956Z,8.93
2019-05-29T15:57:00.812Z,5.62
2019-05-29T15:59:26.684Z,4.85
2019-05-29T16:01:52.642Z,4.35
2019-05-29T16:04:18.527Z,7.17
2019-05-29T16:06:44.666Z,7.35
2019-05-29T16:09:12.787Z,6.92
2019-05-29T16:11:38.636Z,8.73
2019-05-29T16:14:04.630Z,5.70
2019-05-29T16:16:30.508Z,6.10
2019-05-29T16:18:56.351Z,7.92
2019-05-29T16:21:23.167Z,10.72
2019-05-29T16:23:49.173Z,5.22
2019-05-29T16:26:15.180Z,6.28
2019-05-29T16:28:41.114Z,5.72
2019-05-29T16:31:06.996Z,5.25
2019-05-29T16:33:33.054Z,7.10
2019-05-29T16:35:58.981Z,5.62
2019-05-29T16:38:24.869Z,9.13
2019-05-29T16:40:50.751Z,5.12
2019-05-29T16:43:18.055Z,6.22
2019-05-29T16:45:44.027Z,10.65
2019-05-29T16:48:09.917Z,6.47
2019-05-29T16:50:35.790Z,7.42
2019-05-29T16:53:01.652Z,8.38
2019-05-29T16:55:27.518Z,11.03
2019-05-29T16:57:53.398Z,10.95
2019-05-29T17:00:21.506Z,18.30
2019-05-29T17:02:47.622Z,7.40
2019-05-29T17:05:13.937Z,8.73
2019-05-29T17:07:39.836Z,8.90
2019-05-29T17:10:06.293Z,7.53
2019-05-29T17:12:32.208Z,4.97
2019-05-29T17:14:58.059Z,9.88
2019-05-29T17:17:24.763Z,8.25
2019-05-29T17:19:50.760Z,9.55
2019-05-29T17:22:16.643Z,16.77
2019-05-29T17:24:42.557Z,8.20
2019-05-29T17:27:08.415Z,7.90
2019-05-29T17:29:34.289Z,7.50
2019-05-29T17:32:00.152Z,8.53
2019-05-29T17:34:26.008Z,7.37
2019-05-29T17:36:51.899Z,8.83
2019-05-29T17:39:19.906Z,7.15
2019-05-29T17:41:45.543Z,7.10
2019-05-29T17:44:11.419Z,7.10
2019-05-29T17:46:37.428Z,6.97
2019-05-29T17:49:03.553Z,9.50
2019-05-29T17:51:29.445Z,10.75
2019-05-29T17:53:55.387Z,8.48
2019-05-29T17:56:33.701Z,8.18
2019-05-29T17:58:50.003Z,6.40
2019-05-29T18:01:16.176Z,7.05
2019-05-29T18:03:42.109Z,7.12
2019-05-29T18:06:07.969Z,6.92
2019-05-29T18:08:33.821Z,12.82
2019-05-29T18:10:59.677Z,6.28
2019-05-29T18:13:25.640Z,9.98
2019-05-29T18:15:51.505Z,9.68
2019-05-29T18:18:17.536Z,7.62
2019-05-29T18:20:43.430Z,9.98
2019-05-29T18:23:09.286Z,8.98
2019-05-29T18:25:35.138Z,8.25
2019-05-29T18:28:01.757Z,7.47
2019-05-29T18:30:28.766Z,8.45
2019-05-29T18:32:54.785Z,8.13
2019-05-29T18:35:20.816Z,9.25
2019-05-29T18:37:46.804Z,11.60
2019-05-29T18:40:13.032Z,9.93
2019-05-29T18:42:38.843Z,9.08
2019-05-29T18:45:19.608Z,9.13
2019-05-29T18:50:04.156Z,15.48
2019-05-29T18:52:30.009Z,11.00
2019-05-29T18:54:55.887Z,10.70
2019-05-29T18:57:22.887Z,12.63
2019-05-29T18:59:48.870Z,7.40
2019-05-29T19:02:14.736Z,8.80
2019-05-29T19:04:40.592Z,7.53
2019-05-29T19:07:06.513Z,11.12
2019-05-29T19:09:32.522Z,9.23
2019-05-29T19:12:00.462Z,8.25
2019-05-29T19:14:27.887Z,9.80
2019-05-29T19:16:53.825Z,9.23
2019-05-29T19:19:19.680Z,9.70
2019-05-29T19:21:45.535Z,11.53
2019-05-29T19:24:11.424Z,9.30
2019-05-29T19:26:37.304Z,10.28
2019-05-29T19:29:03.277Z,9.83
2019-05-29T19:31:29.178Z,14.20
2019-05-29T19:33:55.033Z,7.70
2019-05-29T19:36:20.881Z,10.20
2019-05-29T19:38:46.763Z,14.65
2019-05-29T19:41:12.651Z,12.10
2019-05-29T19:43:38.502Z,9.48
2019-05-29T19:46:04.386Z,10.65
2019-05-29T19:48:30.875Z,8.88
2019-05-29T19:50:58.918Z,9.98
2019-05-29T19:53:26.867Z,9.83
2019-05-29T19:55:52.545Z,11.30
2019-05-29T19:58:18.448Z,11.08
2019-05-29T20:00:44.377Z,11.70
2019-05-29T20:03:10.230Z,12.88
2019-05-29T20:05:36.999Z,11.00
2019-05-29T20:08:03.255Z,12.53
2019-05-29T20:10:29.270Z,10.68
2019-05-29T20:12:55.149Z,11.40
2019-05-29T20:15:21.002Z,11.48
2019-05-29T20:17:48.797Z,9.58
2019-05-29T20:20:14.888Z,10.75
2019-05-29T20:22:40.743Z,10.28
2019-05-29T20:25:07.429Z,12.28
2019-05-29T20:27:34.188Z,13.18
2019-05-29T20:30:00.142Z,12.18
2019-05-29T20:32:26.006Z,11.10
2019-05-29T20:34:51.889Z,15.32
2019-05-29T20:37:17.758Z,9.03
2019-05-29T20:39:43.605Z,18.32
2019-05-29T20:42:09.466Z,10.00
2019-05-29T20:44:36.681Z,10.35
2019-05-29T20:47:03.122Z,9.18
2019-05-29T20:49:28.997Z,9.55
2019-05-29T20:51:54.851Z,9.98
2019-05-29T20:54:20.716Z,11.85
2019-05-29T20:56:46.582Z,8.60
2019-05-29T20:59:12.430Z,11.03
2019-05-29T21:01:44.258Z,9.68
2019-05-29T21:04:06.204Z,11.05
2019-05-29T21:06:32.447Z,7.58
2019-05-29T21:08:58.416Z,10.03
2019-05-29T21:11:24.304Z,10.40
2019-05-29T21:13:50.162Z,10.45
2019-05-29T21:16:16.057Z,9.03
2019-05-29T21:18:42.231Z,9.80
2019-05-29T21:21:08.218Z,8.10
2019-05-29T21:23:34.277Z,9.60
2019-05-29T21:26:00.238Z,12.55
2019-05-29T21:28:39.246Z,9.90
2019-05-29T21:30:53.889Z,10.53
2019-05-29T21:33:19.910Z,8.60
2019-05-29T21:35:46.394Z,10.20
2019-05-29T21:38:12.308Z,10.82
2019-05-29T21:40:38.321Z,10.08
2019-05-29T21:43:04.230Z,9.68
2019-05-29T21:45:30.216Z,10.65
2019-05-29T21:47:56.094Z,8.83
2019-05-29T21:50:21.945Z,7.65
2019-05-29T21:52:47.814Z,12.68
2019-05-29T21:55:13.789Z,12.55
2019-05-29T21:57:42.310Z,10.08
2019-05-29T22:00:11.042Z,11.10
2019-05-29T22:02:38.229Z,8.28
2019-05-29T22:05:05.881Z,9.35
2019-05-29T22:07:32.704Z,9.83
2019-05-29T22:09:58.786Z,9.25
2019-05-29T22:12:24.719Z,11.55
2019-05-29T22:14:51.289Z,8.95
2019-05-29T22:17:17.844Z,9.35
2019-05-29T22:19:43.745Z,10.80
2019-05-29T22:22:09.617Z,9.30
2019-05-29T22:24:35.473Z,11.57
2019-05-29T22:27:01.568Z,8.80
2019-05-29T22:29:27.500Z,10.17
2019-05-29T22:31:53.441Z,11.80
2019-05-29T22:34:19.338Z,12.07
2019-05-29T22:36:45.189Z,10.07
2019-05-29T22:39:11.048Z,9.27
2019-05-29T22:41:36.919Z,12.97
2019-05-29T22:44:02.985Z,11.17
2019-05-29T22:46:28.842Z,8.95
2019-05-29T22:48:55.918Z,11.27
2019-05-29T22:51:21.753Z,12.03
2019-05-29T22:53:47.641Z,19.70
2019-05-29T22:56:13.496Z,16.47
2019-05-29T22:58:39.373Z,14.30
2019-05-29T23:01:05.217Z,16.00
2019-05-29T23:03:31.073Z,12.80
2019-05-29T23:06:00.408Z,13.63
2019-05-29T23:08:26.920Z,10.53
2019-05-29T23:10:53.040Z,15.32
2019-05-29T23:13:19.943Z,15.73
2019-05-29T23:15:45.826Z,14.13
2019-05-29T23:18:11.677Z,11.33
2019-05-29T23:20:37.532Z,12.10
2019-05-29T23:23:03.404Z,15.53
2019-05-29T23:25:29.283Z,11.43
2019-05-29T23:27:55.134Z,17.50
2019-05-29T23:30:20.990Z,17.53
2019-05-29T23:32:46.847Z,12.37
2019-05-29T23:35:12.795Z,12.27
2019-05-29T23:37:40.629Z,16.47
2019-05-29T23:40:07.912Z,14.43
2019-05-29T23:42:33.961Z,13.77
2019-05-29T23:47:30.112Z,12.90
2019-05-29T23:49:55.982Z,14.93
2019-05-29T23:52:21.844Z,14.73
2019-05-29T23:54:47.718Z,16.27
2019-05-29T23:57:13.603Z,15.73
2019-05-29T23:59:39.449Z,14.60
